Nearby METAR Reports

 

KSFO - San Francisco, California, USA
Distance from station: NNW 8km
Updated: Mon, 22-Jul-2019 7:56pm PDT
Few Clouds
Few Clouds
 Wind from WNW
Wind: WNW 18 mph , 30 km/h
Temperature: 61°F , 16°C
Dew Point: 52°F , 11°C
Humidity: 72%
Barometer: 29.95 inHg , 1014.2 hPa
Clouds: Few Clouds
Visibility: 10 miles , 16 km
Cloud details: Few Clouds 600 ft
2019/07/23 02:56 KSFO 230256Z 30016KT 10SM FEW006 16/11 A2995 RMK AO2 SLP140 T01610111 53005
KSQL - San Carlos Airpo, California, USA
Distance from station: ESE 8km
Updated: Mon, 22-Jul-2019 8:47pm PDT
Clear
Clear
 Wind from WNW
Wind: WNW 5 mph , 7 km/h
Temperature: 72°F , 22°C
Dew Point: 52°F , 11°C
Humidity: 50%
Barometer: 29.96 inHg , 1014.6 hPa
Clouds: Clear
Visibility: 10 miles , 16 km
2019/07/23 03:47 KSQL 230347Z 30004KT 10SM SKC 22/11 A2996 RMK LAST
 
KHAF - Half Moon Bay, California, USA
Distance from station: WSW 15km
Updated: Mon, 22-Jul-2019 8:40pm PDT
Mist, Mostly cloudy
Mist, Mostly cloudy
 Wind from calm
Wind: Calm
Temperature: 54°F , 12°C
Dew Point: 54°F , 12°C
Humidity: 100%
Barometer: 30.00 inHg , 1015.9 hPa
Summary: Mist
Clouds: Mostly cloudy
Visibility: 5 miles , 8 km
Cloud details: Mostly cloudy 300 ft
2019/07/23 03:40 KHAF 230340Z AUTO 00000KT 5SM BR BKN003 12/12 A3000 RMK AO2
KOAK - Oakland, California, USA
Distance from station: NNE 21km
Updated: Mon, 22-Jul-2019 7:53pm PDT
Few Clouds
Few Clouds
 Wind from WNW
Wind: WNW 12 mph , 19 km/h
Temperature: 64°F , 18°C
Dew Point: 55°F , 13°C
Humidity: 73%
Barometer: 29.96 inHg , 1014.6 hPa
Clouds: Few Clouds
Visibility: 10 miles , 16 km
Cloud details: Few Clouds 800 ft
2019/07/23 02:53 KOAK 230253Z 29010KT 10SM FEW008 18/13 A2996 RMK AO2 SLP144 T01830128 53004 $
 
KPAO - Palo Alto, California, USA
Distance from station: ESE 21km
Updated: Mon, 22-Jul-2019 8:47pm PDT
Clear
Clear
 Wind from NNW
Wind: NNW 12 mph , 19 km/h
Temperature: 64°F , 18°C
Dew Point: 61°F , 16°C
Humidity: 88%
Barometer: 29.96 inHg , 1014.6 hPa
Clouds: Clear
Visibility: 10 miles , 16 km
2019/07/23 03:47 KPAO 230347Z 34010KT 10SM SKC 18/16 A2996 RMK LAST GPS/VOR N/A AT NIGHT
KHWD - Hayward, California, USA
Distance from station: NE 23km
Updated: Mon, 22-Jul-2019 7:54pm PDT
Clear
Clear
 Wind from WNW
Wind: WNW 12 mph , 19 km/h
Temperature: 66°F , 19°C
Dew Point: 55°F , 13°C
Humidity: 68%
Barometer: 29.94 inHg , 1013.9 hPa
Clouds: Clear
Visibility: 10 miles , 16 km
2019/07/23 02:54 KHWD 230254Z 30010KT 10SM CLR 19/13 A2994 RMK AO2 SLP149 T01890133 53006
 
KNUQ - Moffett Nas/Mtn, California, USA
Distance from station: ESE 30km
Updated: Mon, 22-Jul-2019 7:56pm PDT
Clear
Clear
 Wind from NNW
Wind: NNW 8 mph , 13 km/h
Temperature: 72°F , 22°C
Dew Point: 61°F , 16°C
Humidity: 69%
Barometer: 29.95 inHg , 1014.2 hPa
Clouds: Clear
Visibility: 10 miles , 16 km
2019/07/23 02:56 KNUQ 230256Z 33007KT 10SM CLR 22/16 A2995 RMK AO2 SLP145 T02170156 53008 $
KSJC - San Jose, California, USA
Distance from station: ESE 42km
Updated: Mon, 22-Jul-2019 7:53pm PDT
Clear
Clear
 Wind from NW
Wind: NW 10 mph , 17 km/h
Temperature: 75°F , 24°C
Dew Point: 55°F , 13°C
Humidity: 50%
Barometer: 29.94 inHg , 1013.9 hPa
Clouds: Clear
Visibility: 10 miles , 16 km
2019/07/23 02:53 KSJC 230253Z 31009KT 10SM CLR 24/13 A2994 RMK AO2 SLP136 T02440133 53007
 
KLVK - Livermore, California, USA
Distance from station: ENE 49km
Updated: Mon, 22-Jul-2019 7:53pm PDT
Clear
Clear
 Wind from WNW
Wind: WNW 10 mph , 17 km/h
Temperature: 81°F , 27°C
Dew Point: 52°F , 11°C
Humidity: 37%
Barometer: 29.91 inHg , 1012.9 hPa
Clouds: Clear
Visibility: 10 miles , 16 km
2019/07/23 02:53 KLVK 230253Z 29009KT 10SM CLR 27/11 A2991 RMK AO2 SLP127 T02670106 53006
KRHV - San Jose/Reid, California, USA
Distance from station: ESE 53km
Updated: Mon, 22-Jul-2019 7:54pm PDT
Clear
Clear
 Wind from WNW
Wind: WNW 6 mph , 9 km/h
Temperature: 81°F , 27°C
Heat Index: 81°F , 27°C
Dew Point: 55°F , 13°C
Humidity: 42%
Barometer: 29.94 inHg , 1013.9 hPa
Clouds: Clear
Visibility: 10 miles , 16 km
2019/07/23 02:54 KRHV 230254Z 30005KT 10SM SKC 27/13 A2994 RMK LAST
 
KCCR - Concord, California, USA
Distance from station: NNE 56km
Updated: Mon, 22-Jul-2019 7:53pm PDT
Clear
Clear
 Wind from NNW
Wind: NNW 8 mph , 13 km/h
Temperature: 82°F , 28°C
Dew Point: 54°F , 12°C
Humidity: 37%
Barometer: 29.90 inHg , 1012.5 hPa
Clouds: Clear
Visibility: 10 miles , 16 km
2019/07/23 02:53 KCCR 230253Z 34007KT 10SM CLR 28/12 A2990 RMK AO2 SLP113 T02780122 53005
KDVO - Novato/Gnoss Fld, California, USA
Distance from station: NNW 70km
Updated: Mon, 22-Jul-2019 8:35pm PDT
Clear
Clear
 Wind from N
Wind: N 7 mph , 11 km/h
Temperature: 66°F , 19°C
Dew Point: 54°F , 12°C
Humidity: 64%
Barometer: 29.93 inHg , 1013.5 hPa
Clouds: Clear
Visibility: 10 miles , 16 km
2019/07/23 03:35 KDVO 230335Z AUTO 01006KT 10SM CLR 19/12 A2993 RMK AO2
 
KAPC - Napa, California, USA
Distance from station: N 73km
Updated: Mon, 22-Jul-2019 7:54pm PDT
Haze, Clear
Haze, Clear
 Wind from S
Wind: S 10 mph , 17 km/h
Temperature: 66°F , 19°C
Dew Point: 57°F , 14°C
Humidity: 73%
Barometer: 29.92 inHg , 1013.2 hPa
Summary: Haze
Clouds: Clear
Visibility: 5 miles , 8 km
2019/07/23 02:54 KAPC 230254Z AUTO 19009KT 5SM HZ CLR 19/14 A2992 RMK AO2 SLP123 T01940139 53003